sensor_id;sensor_type;location;lat;lon;timestamp;P1;durP1;ratioP1;P2;durP2;ratioP2
27794;SDS011;15176;50.844;4.412;2022-07-23T00:00:52;11.02;;;7.55;;
27794;SDS011;15176;50.844;4.412;2022-07-23T00:03:17;13.00;;;8.38;;
27794;SDS011;15176;50.844;4.412;2022-07-23T00:05:43;11.20;;;6.65;;
27794;SDS011;15176;50.844;4.412;2022-07-23T00:08:09;16.75;;;9.38;;
27794;SDS011;15176;50.844;4.412;2022-07-23T00:10:35;13.73;;;8.73;;
27794;SDS011;15176;50.844;4.412;2022-07-23T00:13:01;11.75;;;7.70;;
27794;SDS011;15176;50.844;4.412;2022-07-23T00:15:27;15.75;;;10.00;;
27794;SDS011;15176;50.844;4.412;2022-07-23T00:17:53;12.80;;;8.40;;
27794;SDS011;15176;50.844;4.412;2022-07-23T00:20:18;14.27;;;9.45;;
27794;SDS011;15176;50.844;4.412;2022-07-23T00:22:48;12.10;;;7.30;;
27794;SDS011;15176;50.844;4.412;2022-07-23T00:25:17;13.32;;;7.10;;
27794;SDS011;15176;50.844;4.412;2022-07-23T00:27:44;12.55;;;6.80;;
27794;SDS011;15176;50.844;4.412;2022-07-23T00:30:10;15.70;;;8.75;;
27794;SDS011;15176;50.844;4.412;2022-07-23T00:32:46;11.98;;;8.68;;
27794;SDS011;15176;50.844;4.412;2022-07-23T00:35:17;16.73;;;7.15;;
27794;SDS011;15176;50.844;4.412;2022-07-23T00:37:45;17.63;;;11.02;;
27794;SDS011;15176;50.844;4.412;2022-07-23T00:40:11;11.48;;;8.05;;
27794;SDS011;15176;50.844;4.412;2022-07-23T00:42:37;12.38;;;7.68;;
27794;SDS011;15176;50.844;4.412;2022-07-23T00:45:03;17.27;;;11.23;;
27794;SDS011;15176;50.844;4.412;2022-07-23T00:47:30;10.57;;;7.10;;
27794;SDS011;15176;50.844;4.412;2022-07-23T00:49:56;13.40;;;8.32;;
27794;SDS011;15176;50.844;4.412;2022-07-23T00:52:21;11.45;;;6.05;;
27794;SDS011;15176;50.844;4.412;2022-07-23T00:54:47;16.92;;;9.95;;
27794;SDS011;15176;50.844;4.412;2022-07-23T00:57:13;14.48;;;8.07;;
27794;SDS011;15176;50.844;4.412;2022-07-23T00:59:39;10.65;;;6.78;;
27794;SDS011;15176;50.844;4.412;2022-07-23T01:02:05;10.18;;;6.57;;
27794;SDS011;15176;50.844;4.412;2022-07-23T01:04:31;17.13;;;10.60;;
27794;SDS011;15176;50.844;4.412;2022-07-23T01:06:57;14.88;;;10.50;;
27794;SDS011;15176;50.844;4.412;2022-07-23T01:09:22;12.65;;;9.43;;
27794;SDS011;15176;50.844;4.412;2022-07-23T01:11:48;13.63;;;9.63;;
27794;SDS011;15176;50.844;4.412;2022-07-23T01:14:17;15.40;;;9.70;;
27794;SDS011;15176;50.844;4.412;2022-07-23T01:16:45;11.75;;;6.32;;
27794;SDS011;15176;50.844;4.412;2022-07-23T01:19:12;19.27;;;11.55;;
27794;SDS011;15176;50.844;4.412;2022-07-23T01:21:48;17.50;;;11.57;;
27794;SDS011;15176;50.844;4.412;2022-07-23T01:24:15;16.33;;;9.63;;
27794;SDS011;15176;50.844;4.412;2022-07-23T01:26:44;17.92;;;11.38;;
27794;SDS011;15176;50.844;4.412;2022-07-23T01:29:11;19.30;;;11.00;;
27794;SDS011;15176;50.844;4.412;2022-07-23T01:31:37;12.70;;;8.30;;
27794;SDS011;15176;50.844;4.412;2022-07-23T01:34:03;19.85;;;12.27;;
27794;SDS011;15176;50.844;4.412;2022-07-23T01:36:29;16.58;;;10.82;;
27794;SDS011;15176;50.844;4.412;2022-07-23T01:38:55;12.73;;;8.55;;
27794;SDS011;15176;50.844;4.412;2022-07-23T01:41:21;11.38;;;7.38;;
27794;SDS011;15176;50.844;4.412;2022-07-23T01:43:46;12.05;;;7.00;;
27794;SDS011;15176;50.844;4.412;2022-07-23T01:46:12;16.20;;;9.30;;
27794;SDS011;15176;50.844;4.412;2022-07-23T01:48:38;12.43;;;7.70;;
27794;SDS011;15176;50.844;4.412;2022-07-23T01:51:04;10.38;;;6.88;;
27794;SDS011;15176;50.844;4.412;2022-07-23T01:53:30;12.40;;;7.18;;
27794;SDS011;15176;50.844;4.412;2022-07-23T01:55:56;10.68;;;6.32;;
27794;SDS011;15176;50.844;4.412;2022-07-23T01:58:25;13.18;;;8.80;;
27794;SDS011;15176;50.844;4.412;2022-07-23T02:00:52;11.00;;;6.07;;
27794;SDS011;15176;50.844;4.412;2022-07-23T02:03:19;17.00;;;10.00;;
27794;SDS011;15176;50.844;4.412;2022-07-23T02:05:44;19.27;;;9.50;;
27794;SDS011;15176;50.844;4.412;2022-07-23T02:08:10;14.95;;;8.40;;
27794;SDS011;15176;50.844;4.412;2022-07-23T02:10:36;13.00;;;8.07;;
27794;SDS011;15176;50.844;4.412;2022-07-23T02:13:02;8.13;;;4.88;;
27794;SDS011;15176;50.844;4.412;2022-07-23T02:15:27;13.38;;;8.55;;
27794;SDS011;15176;50.844;4.412;2022-07-23T02:17:53;15.35;;;9.68;;
27794;SDS011;15176;50.844;4.412;2022-07-23T02:20:20;11.00;;;7.55;;
27794;SDS011;15176;50.844;4.412;2022-07-23T02:22:46;16.05;;;9.88;;
27794;SDS011;15176;50.844;4.412;2022-07-23T02:25:12;17.55;;;9.95;;
27794;SDS011;15176;50.844;4.412;2022-07-23T02:27:38;18.83;;;11.25;;
27794;SDS011;15176;50.844;4.412;2022-07-23T02:30:04;9.68;;;5.68;;
27794;SDS011;15176;50.844;4.412;2022-07-23T02:32:30;12.23;;;8.38;;
27794;SDS011;15176;50.844;4.412;2022-07-23T02:34:55;15.60;;;8.50;;
27794;SDS011;15176;50.844;4.412;2022-07-23T02:37:21;13.75;;;8.75;;
27794;SDS011;15176;50.844;4.412;2022-07-23T02:39:47;15.15;;;8.93;;
27794;SDS011;15176;50.844;4.412;2022-07-23T02:42:15;11.13;;;7.43;;
27794;SDS011;15176;50.844;4.412;2022-07-23T02:44:41;15.27;;;9.73;;
27794;SDS011;15176;50.844;4.412;2022-07-23T02:47:07;13.52;;;8.25;;
27794;SDS011;15176;50.844;4.412;2022-07-23T02:49:33;11.32;;;7.10;;
27794;SDS011;15176;50.844;4.412;2022-07-23T02:51:58;10.55;;;7.63;;
27794;SDS011;15176;50.844;4.412;2022-07-23T02:54:24;10.02;;;6.15;;
27794;SDS011;15176;50.844;4.412;2022-07-23T02:56:50;11.30;;;7.00;;
27794;SDS011;15176;50.844;4.412;2022-07-23T02:59:16;11.10;;;6.82;;
27794;SDS011;15176;50.844;4.412;2022-07-23T03:01:42;13.02;;;8.18;;
27794;SDS011;15176;50.844;4.412;2022-07-23T03:04:08;12.32;;;7.35;;
27794;SDS011;15176;50.844;4.412;2022-07-23T03:06:33;11.95;;;7.53;;
27794;SDS011;15176;50.844;4.412;2022-07-23T03:08:59;11.93;;;7.60;;
27794;SDS011;15176;50.844;4.412;2022-07-23T03:11:25;9.55;;;6.40;;
27794;SDS011;15176;50.844;4.412;2022-07-23T03:13:50;12.48;;;7.38;;
27794;SDS011;15176;50.844;4.412;2022-07-23T03:16:16;12.57;;;8.43;;
27794;SDS011;15176;50.844;4.412;2022-07-23T03:18:42;10.13;;;6.15;;
27794;SDS011;15176;50.844;4.412;2022-07-23T03:21:07;14.90;;;10.68;;
27794;SDS011;15176;50.844;4.412;2022-07-23T03:23:33;13.50;;;8.18;;
27794;SDS011;15176;50.844;4.412;2022-07-23T03:25:59;21.83;;;11.63;;
27794;SDS011;15176;50.844;4.412;2022-07-23T03:28:25;9.18;;;6.03;;
27794;SDS011;15176;50.844;4.412;2022-07-23T03:30:50;7.90;;;5.07;;
27794;SDS011;15176;50.844;4.412;2022-07-23T03:33:17;10.45;;;6.78;;
27794;SDS011;15176;50.844;4.412;2022-07-23T03:35:44;13.40;;;9.18;;
27794;SDS011;15176;50.844;4.412;2022-07-23T03:38:11;11.45;;;7.20;;
27794;SDS011;15176;50.844;4.412;2022-07-23T03:40:37;14.20;;;9.60;;
27794;SDS011;15176;50.844;4.412;2022-07-23T03:43:03;15.20;;;9.60;;
27794;SDS011;15176;50.844;4.412;2022-07-23T03:45:28;11.52;;;7.35;;
27794;SDS011;15176;50.844;4.412;2022-07-23T03:47:54;14.00;;;9.18;;
27794;SDS011;15176;50.844;4.412;2022-07-23T03:50:21;15.32;;;10.43;;
27794;SDS011;15176;50.844;4.412;2022-07-23T03:52:47;14.27;;;8.77;;
27794;SDS011;15176;50.844;4.412;2022-07-23T03:55:13;20.05;;;11.38;;
27794;SDS011;15176;50.844;4.412;2022-07-23T03:57:39;11.50;;;7.82;;
27794;SDS011;15176;50.844;4.412;2022-07-23T04:00:06;13.40;;;7.75;;
27794;SDS011;15176;50.844;4.412;2022-07-23T04:02:34;12.27;;;8.73;;
27794;SDS011;15176;50.844;4.412;2022-07-23T04:05:00;15.32;;;9.10;;
27794;SDS011;15176;50.844;4.412;2022-07-23T04:07:26;10.30;;;7.05;;
27794;SDS011;15176;50.844;4.412;2022-07-23T04:09:52;11.38;;;6.85;;
27794;SDS011;15176;50.844;4.412;2022-07-23T04:12:18;10.82;;;7.20;;
27794;SDS011;15176;50.844;4.412;2022-07-23T04:14:44;11.52;;;7.43;;
27794;SDS011;15176;50.844;4.412;2022-07-23T04:17:10;14.80;;;9.52;;
27794;SDS011;15176;50.844;4.412;2022-07-23T04:19:36;15.80;;;9.70;;
27794;SDS011;15176;50.844;4.412;2022-07-23T04:22:05;11.30;;;6.05;;
27794;SDS011;15176;50.844;4.412;2022-07-23T04:24:31;17.20;;;10.48;;
27794;SDS011;15176;50.844;4.412;2022-07-23T04:26:57;10.48;;;7.30;;
27794;SDS011;15176;50.844;4.412;2022-07-23T04:29:23;17.08;;;9.07;;
27794;SDS011;15176;50.844;4.412;2022-07-23T04:31:49;16.67;;;11.45;;
27794;SDS011;15176;50.844;4.412;2022-07-23T04:34:15;16.20;;;10.68;;
27794;SDS011;15176;50.844;4.412;2022-07-23T04:36:40;13.80;;;8.43;;
27794;SDS011;15176;50.844;4.412;2022-07-23T04:39:06;13.88;;;8.27;;
27794;SDS011;15176;50.844;4.412;2022-07-23T04:41:32;14.30;;;10.13;;
27794;SDS011;15176;50.844;4.412;2022-07-23T04:43:59;14.38;;;9.88;;
27794;SDS011;15176;50.844;4.412;2022-07-23T04:46:25;12.65;;;8.43;;
27794;SDS011;15176;50.844;4.412;2022-07-23T04:48:51;10.57;;;6.47;;
27794;SDS011;15176;50.844;4.412;2022-07-23T04:51:16;10.07;;;6.95;;
27794;SDS011;15176;50.844;4.412;2022-07-23T04:53:42;13.27;;;9.88;;
27794;SDS011;15176;50.844;4.412;2022-07-23T04:56:08;12.32;;;8.05;;
27794;SDS011;15176;50.844;4.412;2022-07-23T04:58:33;16.73;;;10.77;;
27794;SDS011;15176;50.844;4.412;2022-07-23T05:00:59;11.88;;;8.10;;
27794;SDS011;15176;50.844;4.412;2022-07-23T05:03:25;12.57;;;8.68;;
27794;SDS011;15176;50.844;4.412;2022-07-23T05:05:50;11.63;;;6.85;;
27794;SDS011;15176;50.844;4.412;2022-07-23T05:08:16;16.08;;;10.52;;
27794;SDS011;15176;50.844;4.412;2022-07-23T05:10:42;16.23;;;9.68;;
27794;SDS011;15176;50.844;4.412;2022-07-23T05:13:08;15.05;;;9.80;;
27794;SDS011;15176;50.844;4.412;2022-07-23T05:15:33;16.17;;;9.77;;
27794;SDS011;15176;50.844;4.412;2022-07-23T05:17:59;15.60;;;9.82;;
27794;SDS011;15176;50.844;4.412;2022-07-23T05:20:24;16.67;;;9.95;;
27794;SDS011;15176;50.844;4.412;2022-07-23T05:22:51;14.18;;;9.27;;
27794;SDS011;15176;50.844;4.412;2022-07-23T05:25:16;11.07;;;7.45;;
27794;SDS011;15176;50.844;4.412;2022-07-23T05:27:42;16.30;;;9.65;;
27794;SDS011;15176;50.844;4.412;2022-07-23T05:30:08;15.55;;;9.93;;
27794;SDS011;15176;50.844;4.412;2022-07-23T05:32:34;16.35;;;10.48;;
27794;SDS011;15176;50.844;4.412;2022-07-23T05:35:01;16.02;;;9.85;;
27794;SDS011;15176;50.844;4.412;2022-07-23T05:37:28;11.88;;;7.47;;
27794;SDS011;15176;50.844;4.412;2022-07-23T05:39:54;16.23;;;10.05;;
27794;SDS011;15176;50.844;4.412;2022-07-23T05:42:19;15.88;;;9.93;;
27794;SDS011;15176;50.844;4.412;2022-07-23T05:44:45;17.23;;;10.77;;
27794;SDS011;15176;50.844;4.412;2022-07-23T05:47:11;13.15;;;8.25;;
27794;SDS011;15176;50.844;4.412;2022-07-23T05:49:37;14.27;;;9.35;;
27794;SDS011;15176;50.844;4.412;2022-07-23T05:52:04;16.67;;;10.55;;
27794;SDS011;15176;50.844;4.412;2022-07-23T05:54:31;18.10;;;10.07;;
27794;SDS011;15176;50.844;4.412;2022-07-23T05:56:59;14.88;;;7.43;;
27794;SDS011;15176;50.844;4.412;2022-07-23T05:59:25;12.63;;;7.88;;
27794;SDS011;15176;50.844;4.412;2022-07-23T06:01:51;11.18;;;7.20;;
27794;SDS011;15176;50.844;4.412;2022-07-23T06:04:16;11.00;;;7.28;;
27794;SDS011;15176;50.844;4.412;2022-07-23T06:06:42;16.75;;;10.52;;
27794;SDS011;15176;50.844;4.412;2022-07-23T06:09:08;14.93;;;9.95;;
27794;SDS011;15176;50.844;4.412;2022-07-23T06:11:35;15.60;;;10.25;;
27794;SDS011;15176;50.844;4.412;2022-07-23T06:14:00;12.48;;;8.65;;
27794;SDS011;15176;50.844;4.412;2022-07-23T06:16:26;15.98;;;10.55;;
27794;SDS011;15176;50.844;4.412;2022-07-23T06:18:51;10.70;;;6.15;;
27794;SDS011;15176;50.844;4.412;2022-07-23T06:21:17;16.27;;;9.65;;
27794;SDS011;15176;50.844;4.412;2022-07-23T06:23:43;17.95;;;10.07;;
27794;SDS011;15176;50.844;4.412;2022-07-23T06:26:08;8.52;;;5.47;;
27794;SDS011;15176;50.844;4.412;2022-07-23T06:28:34;16.08;;;10.15;;
27794;SDS011;15176;50.844;4.412;2022-07-23T06:31:00;13.35;;;8.20;;
27794;SDS011;15176;50.844;4.412;2022-07-23T06:33:25;16.23;;;9.93;;
27794;SDS011;15176;50.844;4.412;2022-07-23T06:35:51;13.60;;;8.70;;
27794;SDS011;15176;50.844;4.412;2022-07-23T06:38:16;11.95;;;7.72;;
27794;SDS011;15176;50.844;4.412;2022-07-23T06:40:42;15.35;;;9.68;;
27794;SDS011;15176;50.844;4.412;2022-07-23T06:43:09;11.20;;;7.47;;
27794;SDS011;15176;50.844;4.412;2022-07-23T06:45:36;12.30;;;7.70;;
27794;SDS011;15176;50.844;4.412;2022-07-23T06:48:01;14.27;;;8.27;;
27794;SDS011;15176;50.844;4.412;2022-07-23T06:50:28;15.63;;;9.55;;
27794;SDS011;15176;50.844;4.412;2022-07-23T06:52:53;14.32;;;8.82;;
27794;SDS011;15176;50.844;4.412;2022-07-23T06:55:19;14.70;;;9.35;;
27794;SDS011;15176;50.844;4.412;2022-07-23T06:57:45;15.57;;;9.70;;
27794;SDS011;15176;50.844;4.412;2022-07-23T07:00:11;11.50;;;6.53;;
27794;SDS011;15176;50.844;4.412;2022-07-23T07:02:36;16.70;;;10.10;;
27794;SDS011;15176;50.844;4.412;2022-07-23T07:05:02;16.50;;;10.05;;
27794;SDS011;15176;50.844;4.412;2022-07-23T07:07:28;14.30;;;10.20;;
27794;SDS011;15176;50.844;4.412;2022-07-23T07:09:54;15.15;;;9.25;;
27794;SDS011;15176;50.844;4.412;2022-07-23T07:12:20;16.40;;;10.15;;
27794;SDS011;15176;50.844;4.412;2022-07-23T07:14:45;14.82;;;9.13;;
27794;SDS011;15176;50.844;4.412;2022-07-23T07:17:11;16.55;;;9.32;;
27794;SDS011;15176;50.844;4.412;2022-07-23T07:19:37;16.63;;;8.95;;
27794;SDS011;15176;50.844;4.412;2022-07-23T07:22:03;14.50;;;8.48;;
27794;SDS011;15176;50.844;4.412;2022-07-23T07:24:28;16.90;;;9.27;;
27794;SDS011;15176;50.844;4.412;2022-07-23T07:26:54;12.65;;;8.63;;
27794;SDS011;15176;50.844;4.412;2022-07-23T07:29:19;12.80;;;7.55;;
27794;SDS011;15176;50.844;4.412;2022-07-23T07:31:45;11.88;;;7.93;;
27794;SDS011;15176;50.844;4.412;2022-07-23T07:34:11;14.70;;;8.45;;
27794;SDS011;15176;50.844;4.412;2022-07-23T07:36:36;11.45;;;7.20;;
27794;SDS011;15176;50.844;4.412;2022-07-23T07:39:03;14.95;;;8.20;;
27794;SDS011;15176;50.844;4.412;2022-07-23T07:41:29;11.25;;;7.28;;
27794;SDS011;15176;50.844;4.412;2022-07-23T07:43:56;11.93;;;7.03;;
27794;SDS011;15176;50.844;4.412;2022-07-23T07:46:21;11.15;;;7.53;;
27794;SDS011;15176;50.844;4.412;2022-07-23T07:48:49;12.60;;;7.30;;
27794;SDS011;15176;50.844;4.412;2022-07-23T07:51:15;13.63;;;8.43;;
27794;SDS011;15176;50.844;4.412;2022-07-23T07:53:41;13.07;;;7.68;;
27794;SDS011;15176;50.844;4.412;2022-07-23T07:56:06;12.13;;;7.82;;
27794;SDS011;15176;50.844;4.412;2022-07-23T07:58:32;12.95;;;7.38;;
27794;SDS011;15176;50.844;4.412;2022-07-23T08:00:58;13.82;;;7.47;;
27794;SDS011;15176;50.844;4.412;2022-07-23T08:03:24;11.25;;;6.50;;
27794;SDS011;15176;50.844;4.412;2022-07-23T08:05:49;12.05;;;6.75;;
27794;SDS011;15176;50.844;4.412;2022-07-23T08:08:15;11.10;;;6.05;;
27794;SDS011;15176;50.844;4.412;2022-07-23T08:10:41;13.73;;;7.03;;
27794;SDS011;15176;50.844;4.412;2022-07-23T08:13:10;10.90;;;6.78;;
27794;SDS011;15176;50.844;4.412;2022-07-23T08:15:38;18.00;;;7.25;;
27794;SDS011;15176;50.844;4.412;2022-07-23T08:18:04;10.25;;;4.70;;
27794;SDS011;15176;50.844;4.412;2022-07-23T08:20:29;13.35;;;6.50;;
27794;SDS011;15176;50.844;4.412;2022-07-23T08:22:57;14.10;;;6.65;;
27794;SDS011;15176;50.844;4.412;2022-07-23T08:25:34;10.98;;;6.82;;
27794;SDS011;15176;50.844;4.412;2022-07-23T08:28:01;16.05;;;7.20;;
27794;SDS011;15176;50.844;4.412;2022-07-23T08:30:29;11.57;;;6.88;;
27794;SDS011;15176;50.844;4.412;2022-07-23T08:32:57;10.07;;;6.63;;
27794;SDS011;15176;50.844;4.412;2022-07-23T08:37:52;13.23;;;7.53;;
27794;SDS011;15176;50.844;4.412;2022-07-23T08:40:19;12.15;;;7.07;;
27794;SDS011;15176;50.844;4.412;2022-07-23T08:42:48;13.20;;;6.88;;
27794;SDS011;15176;50.844;4.412;2022-07-23T08:45:18;13.32;;;7.75;;
27794;SDS011;15176;50.844;4.412;2022-07-23T08:47:48;9.52;;;6.15;;
27794;SDS011;15176;50.844;4.412;2022-07-23T08:50:15;9.00;;;5.57;;
27794;SDS011;15176;50.844;4.412;2022-07-23T08:52:41;12.82;;;6.65;;
27794;SDS011;15176;50.844;4.412;2022-07-23T08:55:07;11.95;;;6.47;;
27794;SDS011;15176;50.844;4.412;2022-07-23T08:57:33;9.20;;;6.22;;
27794;SDS011;15176;50.844;4.412;2022-07-23T08:59:59;12.13;;;6.30;;
27794;SDS011;15176;50.844;4.412;2022-07-23T09:02:25;11.07;;;6.20;;
27794;SDS011;15176;50.844;4.412;2022-07-23T09:04:54;10.65;;;5.90;;
27794;SDS011;15176;50.844;4.412;2022-07-23T09:07:20;11.15;;;6.32;;
27794;SDS011;15176;50.844;4.412;2022-07-23T09:09:48;10.30;;;6.35;;
27794;SDS011;15176;50.844;4.412;2022-07-23T09:12:31;10.55;;;6.13;;
27794;SDS011;15176;50.844;4.412;2022-07-23T09:14:57;9.40;;;5.18;;
27794;SDS011;15176;50.844;4.412;2022-07-23T09:17:29;10.45;;;5.85;;
27794;SDS011;15176;50.844;4.412;2022-07-23T09:20:09;11.70;;;5.93;;
27794;SDS011;15176;50.844;4.412;2022-07-23T09:22:41;10.85;;;5.45;;
27794;SDS011;15176;50.844;4.412;2022-07-23T09:25:15;11.60;;;4.75;;
27794;SDS011;15176;50.844;4.412;2022-07-23T09:27:55;8.63;;;4.50;;
27794;SDS011;15176;50.844;4.412;2022-07-23T09:30:23;8.10;;;4.80;;
27794;SDS011;15176;50.844;4.412;2022-07-23T09:33:11;8.57;;;5.00;;
27794;SDS011;15176;50.844;4.412;2022-07-23T09:35:50;8.07;;;5.28;;
27794;SDS011;15176;50.844;4.412;2022-07-23T09:38:21;8.98;;;4.38;;
27794;SDS011;15176;50.844;4.412;2022-07-23T09:41:07;7.72;;;4.65;;
27794;SDS011;15176;50.844;4.412;2022-07-23T09:43:36;7.65;;;5.15;;
27794;SDS011;15176;50.844;4.412;2022-07-23T09:48:52;8.90;;;4.75;;
27794;SDS011;15176;50.844;4.412;2022-07-23T09:51:19;8.15;;;4.38;;
27794;SDS011;15176;50.844;4.412;2022-07-23T09:53:54;10.95;;;5.47;;
27794;SDS011;15176;50.844;4.412;2022-07-23T09:56:20;9.70;;;4.60;;
27794;SDS011;15176;50.844;4.412;2022-07-23T09:58:45;13.00;;;5.47;;
27794;SDS011;15176;50.844;4.412;2022-07-23T10:01:15;6.88;;;4.35;;
27794;SDS011;15176;50.844;4.412;2022-07-23T10:03:41;8.27;;;4.90;;
27794;SDS011;15176;50.844;4.412;2022-07-23T10:06:11;11.15;;;4.88;;
27794;SDS011;15176;50.844;4.412;2022-07-23T10:08:41;8.50;;;4.20;;
27794;SDS011;15176;50.844;4.412;2022-07-23T10:11:11;11.75;;;4.63;;
27794;SDS011;15176;50.844;4.412;2022-07-23T10:13:39;9.02;;;4.55;;
27794;SDS011;15176;50.844;4.412;2022-07-23T10:16:23;12.10;;;4.70;;
27794;SDS011;15176;50.844;4.412;2022-07-23T10:18:49;8.65;;;4.80;;
27794;SDS011;15176;50.844;4.412;2022-07-23T10:21:20;7.63;;;4.18;;
27794;SDS011;15176;50.844;4.412;2022-07-23T10:26:54;8.77;;;4.68;;
27794;SDS011;15176;50.844;4.412;2022-07-23T10:29:34;9.27;;;5.35;;
27794;SDS011;15176;50.844;4.412;2022-07-23T10:35:18;7.85;;;3.58;;
27794;SDS011;15176;50.844;4.412;2022-07-23T10:37:51;7.28;;;4.15;;
27794;SDS011;15176;50.844;4.412;2022-07-23T10:40:21;7.53;;;4.10;;
27794;SDS011;15176;50.844;4.412;2022-07-23T10:42:49;6.90;;;3.78;;
27794;SDS011;15176;50.844;4.412;2022-07-23T10:45:33;6.70;;;3.60;;
27794;SDS011;15176;50.844;4.412;2022-07-23T10:59:30;7.63;;;4.28;;
27794;SDS011;15176;50.844;4.412;2022-07-23T11:02:19;7.35;;;3.53;;
27794;SDS011;15176;50.844;4.412;2022-07-23T11:04:49;8.35;;;3.45;;
27794;SDS011;15176;50.844;4.412;2022-07-23T11:07:16;6.10;;;3.33;;
27794;SDS011;15176;50.844;4.412;2022-07-23T11:09:43;6.72;;;3.63;;
27794;SDS011;15176;50.844;4.412;2022-07-23T11:20:16;9.93;;;3.08;;
27794;SDS011;15176;50.844;4.412;2022-07-23T11:25:10;5.65;;;2.90;;
27794;SDS011;15176;50.844;4.412;2022-07-23T11:30:05;6.18;;;3.50;;
27794;SDS011;15176;50.844;4.412;2022-07-23T11:32:33;8.20;;;3.20;;
27794;SDS011;15176;50.844;4.412;2022-07-23T11:35:03;5.80;;;3.30;;
27794;SDS011;15176;50.844;4.412;2022-07-23T11:37:47;6.70;;;2.95;;
27794;SDS011;15176;50.844;4.412;2022-07-23T11:40:14;5.35;;;2.95;;
27794;SDS011;15176;50.844;4.412;2022-07-23T11:42:51;5.93;;;3.15;;
27794;SDS011;15176;50.844;4.412;2022-07-23T11:45:18;6.68;;;3.40;;
27794;SDS011;15176;50.844;4.412;2022-07-23T11:47:43;7.50;;;2.88;;
27794;SDS011;15176;50.844;4.412;2022-07-23T11:50:09;6.82;;;3.25;;
27794;SDS011;15176;50.844;4.412;2022-07-23T11:52:35;6.93;;;3.85;;
27794;SDS011;15176;50.844;4.412;2022-07-23T11:55:02;5.50;;;3.17;;
27794;SDS011;15176;50.844;4.412;2022-07-23T11:57:34;9.38;;;4.10;;
27794;SDS011;15176;50.844;4.412;2022-07-23T12:00:03;7.25;;;4.00;;
27794;SDS011;15176;50.844;4.412;2022-07-23T12:02:46;5.93;;;3.17;;
27794;SDS011;15176;50.844;4.412;2022-07-23T12:05:16;7.65;;;3.67;;
27794;SDS011;15176;50.844;4.412;2022-07-23T12:07:44;5.72;;;3.70;;
27794;SDS011;15176;50.844;4.412;2022-07-23T12:10:21;6.93;;;3.17;;
27794;SDS011;15176;50.844;4.412;2022-07-23T12:15:23;8.90;;;3.72;;
27794;SDS011;15176;50.844;4.412;2022-07-23T12:17:55;7.80;;;4.22;;
27794;SDS011;15176;50.844;4.412;2022-07-23T12:20:22;7.10;;;3.50;;
27794;SDS011;15176;50.844;4.412;2022-07-23T12:23:13;9.63;;;3.70;;
27794;SDS011;15176;50.844;4.412;2022-07-23T12:25:44;7.50;;;4.00;;
27794;SDS011;15176;50.844;4.412;2022-07-23T12:28:12;6.15;;;3.75;;
27794;SDS011;15176;50.844;4.412;2022-07-23T12:30:53;7.80;;;3.80;;
27794;SDS011;15176;50.844;4.412;2022-07-23T12:33:24;9.85;;;4.72;;
27794;SDS011;15176;50.844;4.412;2022-07-23T12:35:56;6.30;;;4.32;;
27794;SDS011;15176;50.844;4.412;2022-07-23T12:38:25;9.63;;;5.57;;
27794;SDS011;15176;50.844;4.412;2022-07-23T12:40:58;7.72;;;4.50;;
27794;SDS011;15176;50.844;4.412;2022-07-23T12:43:28;9.88;;;5.40;;
27794;SDS011;15176;50.844;4.412;2022-07-23T12:46:09;9.10;;;4.88;;
27794;SDS011;15176;50.844;4.412;2022-07-23T12:51:27;8.65;;;4.57;;
27794;SDS011;15176;50.844;4.412;2022-07-23T12:53:56;7.72;;;4.25;;
27794;SDS011;15176;50.844;4.412;2022-07-23T12:56:27;9.40;;;5.03;;
27794;SDS011;15176;50.844;4.412;2022-07-23T13:01:35;7.30;;;4.30;;
27794;SDS011;15176;50.844;4.412;2022-07-23T13:06:45;9.30;;;5.25;;
27794;SDS011;15176;50.844;4.412;2022-07-23T13:09:13;7.85;;;4.35;;
27794;SDS011;15176;50.844;4.412;2022-07-23T13:11:41;11.25;;;5.18;;
27794;SDS011;15176;50.844;4.412;2022-07-23T13:14:08;11.95;;;5.00;;
27794;SDS011;15176;50.844;4.412;2022-07-23T13:16:34;9.55;;;5.32;;
27794;SDS011;15176;50.844;4.412;2022-07-23T13:19:00;7.10;;;4.50;;
27794;SDS011;15176;50.844;4.412;2022-07-23T13:21:26;8.55;;;5.22;;
27794;SDS011;15176;50.844;4.412;2022-07-23T13:23:54;9.77;;;6.05;;
27794;SDS011;15176;50.844;4.412;2022-07-23T13:26:20;9.07;;;4.82;;
27794;SDS011;15176;50.844;4.412;2022-07-23T13:28:45;7.47;;;4.15;;
27794;SDS011;15176;50.844;4.412;2022-07-23T13:31:11;8.82;;;4.75;;
27794;SDS011;15176;50.844;4.412;2022-07-23T13:33:38;6.95;;;3.72;;
27794;SDS011;15176;50.844;4.412;2022-07-23T13:36:03;6.22;;;3.30;;
27794;SDS011;15176;50.844;4.412;2022-07-23T13:38:30;8.57;;;3.70;;
27794;SDS011;15176;50.844;4.412;2022-07-23T13:40:55;7.07;;;3.67;;
27794;SDS011;15176;50.844;4.412;2022-07-23T13:43:22;5.72;;;3.33;;
27794;SDS011;15176;50.844;4.412;2022-07-23T13:45:48;7.22;;;4.10;;
27794;SDS011;15176;50.844;4.412;2022-07-23T13:48:15;6.53;;;3.47;;
27794;SDS011;15176;50.844;4.412;2022-07-23T13:50:42;8.35;;;4.55;;
27794;SDS011;15176;50.844;4.412;2022-07-23T13:53:09;6.15;;;3.65;;
27794;SDS011;15176;50.844;4.412;2022-07-23T13:55:37;7.90;;;3.78;;
27794;SDS011;15176;50.844;4.412;2022-07-23T13:58:06;7.78;;;3.58;;
27794;SDS011;15176;50.844;4.412;2022-07-23T14:00:33;8.45;;;3.53;;
27794;SDS011;15176;50.844;4.412;2022-07-23T14:03:01;5.65;;;3.38;;
27794;SDS011;15176;50.844;4.412;2022-07-23T14:05:27;6.82;;;3.75;;
27794;SDS011;15176;50.844;4.412;2022-07-23T14:07:53;6.38;;;3.42;;
27794;SDS011;15176;50.844;4.412;2022-07-23T14:10:22;8.02;;;3.75;;
27794;SDS011;15176;50.844;4.412;2022-07-23T14:12:49;5.68;;;3.20;;
27794;SDS011;15176;50.844;4.412;2022-07-23T14:15:16;5.60;;;2.90;;
27794;SDS011;15176;50.844;4.412;2022-07-23T14:17:43;5.47;;;3.20;;
27794;SDS011;15176;50.844;4.412;2022-07-23T14:20:10;6.35;;;3.35;;
27794;SDS011;15176;50.844;4.412;2022-07-23T14:22:37;5.97;;;3.45;;
27794;SDS011;15176;50.844;4.412;2022-07-23T14:25:03;6.35;;;3.67;;
27794;SDS011;15176;50.844;4.412;2022-07-23T14:27:30;6.68;;;4.35;;
27794;SDS011;15176;50.844;4.412;2022-07-23T14:29:56;6.63;;;3.63;;
27794;SDS011;15176;50.844;4.412;2022-07-23T14:32:22;7.20;;;3.10;;
27794;SDS011;15176;50.844;4.412;2022-07-23T14:34:48;6.53;;;3.42;;
27794;SDS011;15176;50.844;4.412;2022-07-23T14:37:14;6.45;;;2.58;;
27794;SDS011;15176;50.844;4.412;2022-07-23T14:39:41;6.32;;;3.05;;
27794;SDS011;15176;50.844;4.412;2022-07-23T14:42:07;6.53;;;3.20;;
27794;SDS011;15176;50.844;4.412;2022-07-23T14:44:34;5.65;;;3.65;;
27794;SDS011;15176;50.844;4.412;2022-07-23T14:47:00;7.50;;;4.00;;
27794;SDS011;15176;50.844;4.412;2022-07-23T14:49:29;7.35;;;3.20;;
27794;SDS011;15176;50.844;4.412;2022-07-23T14:51:55;5.53;;;3.30;;
27794;SDS011;15176;50.844;4.412;2022-07-23T14:54:21;5.93;;;3.13;;
27794;SDS011;15176;50.844;4.412;2022-07-23T14:56:47;9.25;;;3.50;;
27794;SDS011;15176;50.844;4.412;2022-07-23T14:59:13;5.93;;;3.58;;
27794;SDS011;15176;50.844;4.412;2022-07-23T15:01:39;6.63;;;3.25;;
27794;SDS011;15176;50.844;4.412;2022-07-23T15:04:05;5.57;;;3.60;;
27794;SDS011;15176;50.844;4.412;2022-07-23T15:06:31;7.10;;;3.63;;
27794;SDS011;15176;50.844;4.412;2022-07-23T15:08:58;6.00;;;3.25;;
27794;SDS011;15176;50.844;4.412;2022-07-23T15:11:25;7.40;;;3.35;;
27794;SDS011;15176;50.844;4.412;2022-07-23T15:13:57;6.15;;;3.33;;
27794;SDS011;15176;50.844;4.412;2022-07-23T15:16:22;6.28;;;3.70;;
27794;SDS011;15176;50.844;4.412;2022-07-23T15:18:48;5.57;;;3.15;;
27794;SDS011;15176;50.844;4.412;2022-07-23T15:21:14;10.73;;;4.22;;
27794;SDS011;15176;50.844;4.412;2022-07-23T15:23:40;7.20;;;4.05;;
27794;SDS011;15176;50.844;4.412;2022-07-23T15:26:06;6.18;;;3.60;;